New Burlingtn, Indiana
Current Conditions -  °F | °C
As of 10:53 PM on Wednesday 22 Oct 2014 (Local Time) from KMIE Reporting Station
Clear Clear  
Wind Chill: 37°   Ceiling: Unl
Heat Index: 40°   Visibility: 10mi
Dew Point: 37°   Wind: 5mph
Humidity: 89%   Direction: 120°ESE
Pressure: 30.27"   Gusts: NA
Location:  40.1286°N, 85.3767°W
Report Text: KMIE 230253Z AUTO 12004KT 10SM CLR 04/03 A3027 RMK AO2 SLP254 T00440028 55002
Loading
Personal Weather Stations






























Interactive Weather Map
Tropical Storm Tracking
New forecast layout! Learn more

10-Day Weather Forecast

Advertisements
Track Severe Weather on mobile